AIQ3030 VTSP-VTBD
Flight info
| Callsign | AIQ3030 |
|---|---|
| Flight time | 1h 13m |
| Altitude | 35000 |
| Route | IGEVI1A IGEVI Y5 EGUBO Y99 HOTEL SABAI3A |
| Aircraft | A320/M-SDE3FGHIRWY/LB1 |
Departure
| Time | 2026-04-28 04:08 |
|---|---|
| Airport | Phuket International Airport (VTSP) |
Arrival
| Time | 2026-04-28 05:22 |
|---|---|
| Airport | Don Mueang International Airport (VTBD) |
| Time | Latitude | Longitude | Altitude | Speed | Heading |
|---|---|---|---|---|---|
| 2026-04-28 03:57 | 8.10841 | 98.30536 | 27 ft | 0 kts | 105° |
| 2026-04-28 04:00 | 8.10843 | 98.30527 | 27 ft | 3 kts | 104° |
| 2026-04-28 04:01 | 8.10847 | 98.30507 | 27 ft | 3 kts | 94° |
| 2026-04-28 04:01 | 8.10847 | 98.30487 | 27 ft | 3 kts | 81° |
| 2026-04-28 04:01 | 8.10842 | 98.30468 | 27 ft | 3 kts | 63° |
| 2026-04-28 04:01 | 8.10837 | 98.30459 | 27 ft | 1 kts | 58° |
| 2026-04-28 04:02 | 8.10837 | 98.30458 | 27 ft | 0 kts | 58° |
| 2026-04-28 04:04 | 8.10871 | 98.30454 | 27 ft | 12 kts | 352° |
| 2026-04-28 04:04 | 8.10935 | 98.30464 | 27 ft | 7 kts | 14° |
| 2026-04-28 04:05 | 8.10981 | 98.30476 | 27 ft | 8 kts | 14° |
| 2026-04-28 04:05 | 8.11037 | 98.30453 | 27 ft | 10 kts | 298° |
| 2026-04-28 04:05 | 8.11037 | 98.30392 | 27 ft | 8 kts | 269° |
| 2026-04-28 04:05 | 8.11069 | 98.30354 | 27 ft | 7 kts | 339° |
| 2026-04-28 04:06 | 8.11096 | 98.30350 | 27 ft | 0 kts | 354° |
| 2026-04-28 04:06 | 8.11151 | 98.30345 | 27 ft | 12 kts | 356° |
| 2026-04-28 04:07 | 8.11198 | 98.30372 | 27 ft | 8 kts | 72° |
| 2026-04-28 04:07 | 8.11201 | 98.30389 | 27 ft | 0 kts | 84° |
| 2026-04-28 04:07 | 8.11208 | 98.30468 | 27 ft | 42 kts | 84° |
| 2026-04-28 04:07 | 8.11260 | 98.31010 | 30 ft | 110 kts | 85° |
| 2026-04-28 04:08 | 8.11354 | 98.31957 | 142 ft | 149 kts | 84° |
| 2026-04-28 04:08 | 8.11453 | 98.33000 | 757 ft | 153 kts | 84° |
| 2026-04-28 04:08 | 8.11556 | 98.34088 | 1437 ft | 157 kts | 84° |
| 2026-04-28 04:08 | 8.11665 | 98.35248 | 1810 ft | 177 kts | 84° |
| 2026-04-28 04:09 | 8.11790 | 98.36580 | 2132 ft | 202 kts | 84° |
| 2026-04-28 04:09 | 8.11928 | 98.38074 | 2505 ft | 225 kts | 84° |
| 2026-04-28 04:09 | 8.12080 | 98.39716 | 2907 ft | 249 kts | 85° |
| 2026-04-28 04:09 | 8.12248 | 98.41522 | 3584 ft | 259 kts | 85° |
| 2026-04-28 04:10 | 8.12418 | 98.43323 | 4433 ft | 263 kts | 85° |
| 2026-04-28 04:10 | 8.12592 | 98.45174 | 5271 ft | 267 kts | 85° |
| 2026-04-28 04:10 | 8.12767 | 98.47052 | 6097 ft | 271 kts | 85° |
| 2026-04-28 04:10 | 8.12945 | 98.48959 | 6891 ft | 274 kts | 85° |
| 2026-04-28 04:11 | 8.13126 | 98.50885 | 7681 ft | 277 kts | 84° |
| 2026-04-28 04:11 | 8.13311 | 98.52837 | 8457 ft | 281 kts | 84° |
| 2026-04-28 04:11 | 8.13501 | 98.54825 | 9239 ft | 285 kts | 84° |
| 2026-04-28 04:11 | 8.13766 | 98.56815 | 9986 ft | 288 kts | 75° |
| 2026-04-28 04:12 | 8.14617 | 98.58702 | 10303 ft | 308 kts | 53° |
| 2026-04-28 04:12 | 8.16275 | 98.60139 | 10508 ft | 331 kts | 28° |
| 2026-04-28 04:12 | 8.18421 | 98.61106 | 11013 ft | 340 kts | 24° |
| 2026-04-28 04:12 | 8.20615 | 98.62061 | 11640 ft | 345 kts | 24° |
| 2026-04-28 04:13 | 8.22834 | 98.63028 | 12291 ft | 349 kts | 25° |
| 2026-04-28 04:13 | 8.25055 | 98.64001 | 12923 ft | 353 kts | 25° |
| 2026-04-28 04:13 | 8.27326 | 98.65001 | 13561 ft | 357 kts | 25° |
| 2026-04-28 04:13 | 8.29620 | 98.66014 | 14144 ft | 361 kts | 25° |
| 2026-04-28 04:14 | 8.31936 | 98.67039 | 14711 ft | 364 kts | 25° |
| 2026-04-28 04:14 | 8.34277 | 98.68073 | 15276 ft | 368 kts | 25° |
| 2026-04-28 04:14 | 8.36603 | 98.69103 | 15833 ft | 371 kts | 25° |
| 2026-04-28 04:14 | 8.39012 | 98.70169 | 16404 ft | 374 kts | 25° |
| 2026-04-28 04:15 | 8.41389 | 98.71218 | 16940 ft | 378 kts | 25° |
| 2026-04-28 04:15 | 8.43810 | 98.72286 | 17470 ft | 381 kts | 25° |
| 2026-04-28 04:15 | 8.48704 | 98.74451 | 18510 ft | 388 kts | 25° |
| 2026-04-28 04:16 | 8.51183 | 98.75550 | 19001 ft | 390 kts | 25° |
| 2026-04-28 04:16 | 8.53673 | 98.76656 | 19505 ft | 391 kts | 25° |
| 2026-04-28 04:16 | 8.56178 | 98.77768 | 20008 ft | 393 kts | 25° |
| 2026-04-28 04:16 | 8.58664 | 98.78869 | 20504 ft | 395 kts | 25° |
| 2026-04-28 04:17 | 8.61202 | 98.79991 | 21009 ft | 397 kts | 25° |
| 2026-04-28 04:17 | 8.63749 | 98.81116 | 21494 ft | 399 kts | 25° |
| 2026-04-28 04:17 | 8.66305 | 98.82245 | 21984 ft | 402 kts | 24° |
| 2026-04-28 04:17 | 8.68873 | 98.83380 | 22463 ft | 403 kts | 24° |
| 2026-04-28 04:18 | 8.71422 | 98.84508 | 22927 ft | 405 kts | 24° |
| 2026-04-28 04:18 | 8.74017 | 98.85658 | 23385 ft | 407 kts | 24° |
| 2026-04-28 04:18 | 8.76617 | 98.86810 | 23759 ft | 409 kts | 24° |
| 2026-04-28 04:18 | 8.79235 | 98.87975 | 24112 ft | 411 kts | 24° |
| 2026-04-28 04:19 | 8.81834 | 98.89130 | 24456 ft | 414 kts | 24° |
| 2026-04-28 04:19 | 8.84478 | 98.90306 | 24802 ft | 416 kts | 24° |
| 2026-04-28 04:19 | 8.87135 | 98.91488 | 25135 ft | 418 kts | 24° |
| 2026-04-28 04:19 | 8.89807 | 98.92677 | 25457 ft | 421 kts | 24° |
| 2026-04-28 04:20 | 8.92497 | 98.93874 | 25784 ft | 423 kts | 24° |
| 2026-04-28 04:20 | 8.95199 | 98.95075 | 26099 ft | 425 kts | 24° |
| 2026-04-28 04:20 | 8.97923 | 98.96284 | 26417 ft | 427 kts | 24° |
| 2026-04-28 04:20 | 9.00651 | 98.97493 | 26719 ft | 429 kts | 24° |
| 2026-04-28 04:21 | 9.03403 | 98.98709 | 27025 ft | 432 kts | 24° |
| 2026-04-28 04:21 | 9.06166 | 98.99930 | 27324 ft | 434 kts | 24° |
| 2026-04-28 04:21 | 9.08907 | 99.01144 | 27623 ft | 436 kts | 24° |
| 2026-04-28 04:21 | 9.11699 | 99.02383 | 27924 ft | 438 kts | 24° |
| 2026-04-28 04:22 | 9.14512 | 99.03633 | 28199 ft | 440 kts | 23° |
| 2026-04-28 04:22 | 9.17293 | 99.04871 | 28480 ft | 442 kts | 23° |
| 2026-04-28 04:22 | 9.20113 | 99.06128 | 28762 ft | 444 kts | 23° |
| 2026-04-28 04:22 | 9.22962 | 99.07365 | 29051 ft | 445 kts | 22° |
| 2026-04-28 04:23 | 9.25836 | 99.08555 | 29327 ft | 447 kts | 21° |
| 2026-04-28 04:23 | 9.28736 | 99.09720 | 29589 ft | 449 kts | 21° |
| 2026-04-28 04:23 | 9.31659 | 99.10880 | 29843 ft | 451 kts | 21° |
| 2026-04-28 04:23 | 9.34581 | 99.12041 | 30067 ft | 453 kts | 21° |
| 2026-04-28 04:24 | 9.37446 | 99.13186 | 30272 ft | 454 kts | 21° |
| 2026-04-28 04:24 | 9.40390 | 99.14372 | 30478 ft | 456 kts | 21° |
| 2026-04-28 04:24 | 9.43301 | 99.15554 | 30686 ft | 457 kts | 21° |
| 2026-04-28 04:24 | 9.46267 | 99.16765 | 30877 ft | 459 kts | 21° |
| 2026-04-28 04:25 | 9.49236 | 99.17981 | 31078 ft | 460 kts | 21° |
| 2026-04-28 04:25 | 9.52211 | 99.19196 | 31306 ft | 460 kts | 21° |
| 2026-04-28 04:25 | 9.55182 | 99.20407 | 31592 ft | 459 kts | 21° |
| 2026-04-28 04:25 | 9.58141 | 99.21614 | 31885 ft | 458 kts | 21° |
| 2026-04-28 04:26 | 9.61058 | 99.22804 | 32164 ft | 457 kts | 21° |
| 2026-04-28 04:26 | 9.64008 | 99.24008 | 32443 ft | 456 kts | 21° |
| 2026-04-28 04:26 | 9.66950 | 99.25210 | 32723 ft | 455 kts | 21° |
| 2026-04-28 04:26 | 9.69892 | 99.26411 | 33001 ft | 455 kts | 20° |
| 2026-04-28 04:27 | 9.72831 | 99.27609 | 33256 ft | 455 kts | 20° |
| 2026-04-28 04:27 | 9.75780 | 99.28807 | 33529 ft | 455 kts | 20° |
| 2026-04-28 04:27 | 9.78683 | 99.29989 | 33808 ft | 455 kts | 20° |
| 2026-04-28 04:27 | 9.81630 | 99.31191 | 34075 ft | 454 kts | 20° |
| 2026-04-28 04:28 | 9.84563 | 99.32384 | 34342 ft | 453 kts | 20° |
| 2026-04-28 04:28 | 9.87487 | 99.33574 | 34610 ft | 451 kts | 20° |
| 2026-04-28 04:28 | 9.90372 | 99.34749 | 34825 ft | 451 kts | 20° |
| 2026-04-28 04:29 | 9.96160 | 99.37111 | 34893 ft | 445 kts | 20° |
| 2026-04-28 04:29 | 10.01899 | 99.39461 | 34893 ft | 443 kts | 20° |
| 2026-04-28 04:30 | 10.07628 | 99.41807 | 34894 ft | 443 kts | 20° |
| 2026-04-28 04:30 | 10.13366 | 99.44154 | 34893 ft | 444 kts | 20° |
| 2026-04-28 04:31 | 10.19078 | 99.46484 | 34884 ft | 444 kts | 20° |
| 2026-04-28 04:31 | 10.24819 | 99.48832 | 34880 ft | 445 kts | 20° |
| 2026-04-28 04:32 | 10.30651 | 99.50905 | 34877 ft | 443 kts | 14° |
| 2026-04-28 04:32 | 10.36591 | 99.52619 | 34877 ft | 443 kts | 13° |
| 2026-04-28 04:33 | 10.42505 | 99.54280 | 34882 ft | 444 kts | 14° |
| 2026-04-28 04:33 | 10.48457 | 99.55978 | 34880 ft | 444 kts | 14° |
| 2026-04-28 04:34 | 10.54414 | 99.57696 | 34881 ft | 445 kts | 14° |
| 2026-04-28 04:34 | 10.60377 | 99.59424 | 34883 ft | 445 kts | 14° |
| 2026-04-28 04:35 | 10.66314 | 99.61140 | 34886 ft | 445 kts | 14° |
| 2026-04-28 04:35 | 10.72282 | 99.62862 | 34890 ft | 445 kts | 14° |
| 2026-04-28 04:36 | 10.78255 | 99.64583 | 34895 ft | 446 kts | 14° |
| 2026-04-28 04:36 | 10.83222 | 99.66015 | 34895 ft | 446 kts | 13° |
| 2026-04-28 04:37 | 10.90177 | 99.68022 | 34894 ft | 446 kts | 13° |
| 2026-04-28 04:37 | 10.95179 | 99.69475 | 34898 ft | 446 kts | 13° |
| 2026-04-28 04:38 | 11.02131 | 99.71493 | 34900 ft | 446 kts | 13° |
| 2026-04-28 04:38 | 11.07097 | 99.72931 | 34899 ft | 446 kts | 13° |
| 2026-04-28 04:39 | 11.14057 | 99.74935 | 34896 ft | 446 kts | 13° |
| 2026-04-28 04:39 | 11.19035 | 99.76373 | 34898 ft | 446 kts | 13° |
| 2026-04-28 04:40 | 11.25026 | 99.78110 | 34891 ft | 446 kts | 13° |
| 2026-04-28 04:40 | 11.31009 | 99.79845 | 34887 ft | 446 kts | 13° |
| 2026-04-28 04:41 | 11.36942 | 99.81567 | 34883 ft | 446 kts | 13° |
| 2026-04-28 04:41 | 11.42916 | 99.83305 | 34881 ft | 446 kts | 13° |
| 2026-04-28 04:42 | 11.45698 | 99.84116 | 34888 ft | 446 kts | 13° |
| 2026-04-28 04:48 | 11.48416 | 99.84903 | 34561 ft | 447 kts | 13° |
| 2026-04-28 04:48 | 11.54372 | 99.86621 | 34762 ft | 448 kts | 13° |
| 2026-04-28 04:48 | 11.57385 | 99.87491 | 34865 ft | 452 kts | 13° |
| 2026-04-28 04:49 | 11.60423 | 99.88371 | 34892 ft | 457 kts | 13° |
| 2026-04-28 04:49 | 11.66607 | 99.90171 | 34888 ft | 462 kts | 13° |
| 2026-04-28 04:50 | 11.72771 | 99.91968 | 34888 ft | 463 kts | 13° |
| 2026-04-28 04:50 | 11.78965 | 99.93774 | 34888 ft | 463 kts | 13° |
| 2026-04-28 04:51 | 11.85127 | 99.95568 | 34888 ft | 463 kts | 13° |
| 2026-04-28 04:51 | 11.91344 | 99.97372 | 34888 ft | 464 kts | 13° |
| 2026-04-28 04:52 | 11.97562 | 99.99183 | 34887 ft | 464 kts | 13° |
| 2026-04-28 04:52 | 12.03734 | 100.00983 | 34888 ft | 464 kts | 13° |
| 2026-04-28 04:53 | 12.09947 | 100.02798 | 34888 ft | 464 kts | 13° |
| 2026-04-28 04:53 | 12.16166 | 100.04612 | 34887 ft | 464 kts | 13° |
| 2026-04-28 04:54 | 12.22397 | 100.06426 | 34894 ft | 464 kts | 13° |
| 2026-04-28 04:54 | 12.28583 | 100.08227 | 34890 ft | 465 kts | 13° |
| 2026-04-28 04:55 | 12.34805 | 100.10046 | 34891 ft | 465 kts | 13° |
| 2026-04-28 04:55 | 12.41031 | 100.11869 | 34890 ft | 465 kts | 13° |
| 2026-04-28 04:56 | 12.47262 | 100.13696 | 34894 ft | 465 kts | 13° |
| 2026-04-28 04:56 | 12.53456 | 100.15505 | 34824 ft | 465 kts | 13° |
| 2026-04-28 04:56 | 12.56569 | 100.16413 | 34586 ft | 463 kts | 13° |
| 2026-04-28 04:57 | 12.59671 | 100.17321 | 33917 ft | 465 kts | 13° |
| 2026-04-28 04:57 | 12.62794 | 100.18237 | 32978 ft | 467 kts | 13° |
| 2026-04-28 04:57 | 12.65901 | 100.19149 | 32419 ft | 461 kts | 13° |
| 2026-04-28 04:57 | 12.68974 | 100.20052 | 31799 ft | 457 kts | 13° |
| 2026-04-28 04:58 | 12.71986 | 100.20935 | 31210 ft | 453 kts | 13° |
| 2026-04-28 04:58 | 12.75014 | 100.21822 | 30610 ft | 451 kts | 13° |
| 2026-04-28 04:58 | 12.78023 | 100.22701 | 30022 ft | 448 kts | 13° |
| 2026-04-28 04:58 | 12.81023 | 100.23579 | 29371 ft | 445 kts | 13° |
| 2026-04-28 04:59 | 12.83986 | 100.24450 | 28800 ft | 440 kts | 13° |
| 2026-04-28 04:59 | 12.86926 | 100.25315 | 28227 ft | 436 kts | 13° |
| 2026-04-28 04:59 | 12.89799 | 100.26162 | 27672 ft | 433 kts | 13° |
| 2026-04-28 04:59 | 12.92683 | 100.27011 | 27125 ft | 429 kts | 13° |
| 2026-04-28 05:00 | 12.95553 | 100.27852 | 26585 ft | 425 kts | 13° |
| 2026-04-28 05:00 | 12.98391 | 100.28680 | 26065 ft | 422 kts | 13° |
| 2026-04-28 05:00 | 13.01213 | 100.29503 | 25553 ft | 418 kts | 13° |
| 2026-04-28 05:00 | 13.03969 | 100.30312 | 25068 ft | 415 kts | 14° |
| 2026-04-28 05:01 | 13.06734 | 100.31127 | 24579 ft | 412 kts | 14° |
| 2026-04-28 05:01 | 13.09492 | 100.31940 | 24086 ft | 410 kts | 14° |
| 2026-04-28 05:01 | 13.12248 | 100.32545 | 23849 ft | 397 kts | 2° |
| 2026-04-28 05:01 | 13.14941 | 100.32447 | 23772 ft | 380 kts | 352° |
| 2026-04-28 05:02 | 13.17522 | 100.32155 | 23697 ft | 366 kts | 352° |
| 2026-04-28 05:02 | 13.20007 | 100.31867 | 23628 ft | 363 kts | 352° |
| 2026-04-28 05:02 | 13.22521 | 100.31571 | 23555 ft | 364 kts | 351° |
| 2026-04-28 05:02 | 13.25044 | 100.31274 | 23492 ft | 364 kts | 352° |
| 2026-04-28 05:03 | 13.27563 | 100.30976 | 23329 ft | 364 kts | 351° |
| 2026-04-28 05:03 | 13.30043 | 100.30686 | 22907 ft | 362 kts | 351° |
| 2026-04-28 05:03 | 13.32546 | 100.30393 | 22457 ft | 360 kts | 352° |
| 2026-04-28 05:03 | 13.35032 | 100.30106 | 22017 ft | 358 kts | 352° |
| 2026-04-28 05:04 | 13.37503 | 100.29821 | 21558 ft | 356 kts | 352° |
| 2026-04-28 05:04 | 13.39974 | 100.29532 | 21099 ft | 355 kts | 352° |
| 2026-04-28 05:04 | 13.42427 | 100.29243 | 20641 ft | 355 kts | 352° |
| 2026-04-28 05:04 | 13.44881 | 100.28955 | 20176 ft | 354 kts | 352° |
| 2026-04-28 05:05 | 13.47297 | 100.28672 | 19715 ft | 354 kts | 352° |
| 2026-04-28 05:05 | 13.49754 | 100.28384 | 19247 ft | 354 kts | 352° |
| 2026-04-28 05:05 | 13.52213 | 100.28096 | 18790 ft | 355 kts | 352° |
| 2026-04-28 05:05 | 13.54667 | 100.27807 | 18327 ft | 355 kts | 352° |
| 2026-04-28 05:06 | 13.57125 | 100.27515 | 17818 ft | 356 kts | 352° |
| 2026-04-28 05:06 | 13.59585 | 100.27223 | 17343 ft | 354 kts | 352° |
| 2026-04-28 05:06 | 13.62028 | 100.26937 | 16878 ft | 353 kts | 352° |
| 2026-04-28 05:06 | 13.64471 | 100.26654 | 16436 ft | 352 kts | 352° |
| 2026-04-28 05:07 | 13.66900 | 100.26370 | 15993 ft | 351 kts | 352° |
| 2026-04-28 05:07 | 13.69328 | 100.26082 | 15541 ft | 350 kts | 352° |
| 2026-04-28 05:07 | 13.71724 | 100.25803 | 15097 ft | 350 kts | 353° |
| 2026-04-28 05:07 | 13.74157 | 100.25850 | 14654 ft | 351 kts | 7° |
| 2026-04-28 05:08 | 13.76525 | 100.26488 | 14198 ft | 353 kts | 20° |
| 2026-04-28 05:08 | 13.78697 | 100.27670 | 13738 ft | 354 kts | 31° |
| 2026-04-28 05:08 | 13.80796 | 100.29004 | 13229 ft | 354 kts | 31° |
| 2026-04-28 05:08 | 13.82876 | 100.30315 | 13005 ft | 345 kts | 31° |
| 2026-04-28 05:09 | 13.84870 | 100.31565 | 12879 ft | 333 kts | 31° |
| 2026-04-28 05:09 | 13.86826 | 100.32787 | 12719 ft | 324 kts | 31° |
| 2026-04-28 05:09 | 13.88739 | 100.33979 | 12347 ft | 318 kts | 31° |
| 2026-04-28 05:09 | 13.90626 | 100.35157 | 11989 ft | 318 kts | 31° |
| 2026-04-28 05:10 | 13.92512 | 100.36339 | 11638 ft | 316 kts | 31° |
| 2026-04-28 05:10 | 13.94382 | 100.37514 | 11305 ft | 313 kts | 31° |
| 2026-04-28 05:10 | 13.96241 | 100.38682 | 10974 ft | 312 kts | 31° |
| 2026-04-28 05:10 | 13.98069 | 100.39832 | 10662 ft | 310 kts | 31° |
| 2026-04-28 05:11 | 13.99903 | 100.40984 | 10425 ft | 308 kts | 31° |
| 2026-04-28 05:11 | 14.01733 | 100.42134 | 10114 ft | 307 kts | 31° |
| 2026-04-28 05:11 | 14.03558 | 100.43279 | 9709 ft | 309 kts | 31° |
| 2026-04-28 05:11 | 14.05397 | 100.44434 | 9313 ft | 307 kts | 31° |
| 2026-04-28 05:12 | 14.07222 | 100.45581 | 8833 ft | 308 kts | 31° |
| 2026-04-28 05:12 | 14.09007 | 100.46704 | 8682 ft | 298 kts | 31° |
| 2026-04-28 05:12 | 14.10745 | 100.47798 | 8556 ft | 287 kts | 31° |
| 2026-04-28 05:12 | 14.12407 | 100.48844 | 8374 ft | 272 kts | 31° |
| 2026-04-28 05:13 | 14.13996 | 100.49846 | 8049 ft | 263 kts | 31° |
| 2026-04-28 05:13 | 14.15569 | 100.50835 | 7793 ft | 263 kts | 30° |
| 2026-04-28 05:13 | 14.17122 | 100.51812 | 7538 ft | 259 kts | 31° |
| 2026-04-28 05:13 | 14.18626 | 100.52852 | 7266 ft | 259 kts | 42° |
| 2026-04-28 05:14 | 14.19699 | 100.54302 | 7013 ft | 260 kts | 64° |
| 2026-04-28 05:14 | 14.20174 | 100.56080 | 6715 ft | 258 kts | 87° |
| 2026-04-28 05:14 | 14.20039 | 100.57913 | 6405 ft | 256 kts | 99° |
| 2026-04-28 05:14 | 14.19798 | 100.59736 | 6084 ft | 256 kts | 98° |
| 2026-04-28 05:15 | 14.19563 | 100.61567 | 5768 ft | 256 kts | 98° |
| 2026-04-28 05:15 | 14.19337 | 100.63359 | 5463 ft | 254 kts | 98° |
| 2026-04-28 05:15 | 14.18845 | 100.65086 | 5151 ft | 250 kts | 121° |
| 2026-04-28 05:15 | 14.17747 | 100.66441 | 4825 ft | 245 kts | 144° |
| 2026-04-28 05:16 | 14.16232 | 100.67228 | 4391 ft | 242 kts | 167° |
| 2026-04-28 05:16 | 14.14629 | 100.67667 | 3952 ft | 236 kts | 167° |
| 2026-04-28 05:16 | 14.13041 | 100.68113 | 3399 ft | 239 kts | 166° |
| 2026-04-28 05:17 | 14.09984 | 100.68993 | 3205 ft | 218 kts | 166° |
| 2026-04-28 05:17 | 14.08541 | 100.69362 | 3124 ft | 207 kts | 175° |
| 2026-04-28 05:17 | 14.07166 | 100.69274 | 3036 ft | 192 kts | 195° |
| 2026-04-28 05:17 | 14.05975 | 100.68730 | 2838 ft | 185 kts | 208° |
| 2026-04-28 05:18 | 14.04855 | 100.68100 | 2610 ft | 181 kts | 208° |
| 2026-04-28 05:18 | 14.03767 | 100.67489 | 2396 ft | 179 kts | 208° |
| 2026-04-28 05:18 | 14.02694 | 100.66887 | 2172 ft | 171 kts | 208° |
| 2026-04-28 05:18 | 14.01691 | 100.66324 | 1968 ft | 155 kts | 209° |
| 2026-04-28 05:19 | 14.00794 | 100.65820 | 1786 ft | 141 kts | 209° |
| 2026-04-28 05:19 | 13.99942 | 100.65342 | 1602 ft | 138 kts | 208° |
| 2026-04-28 05:19 | 13.99092 | 100.64864 | 1423 ft | 138 kts | 210° |
| 2026-04-28 05:19 | 13.98243 | 100.64388 | 1244 ft | 137 kts | 210° |
| 2026-04-28 05:20 | 13.97417 | 100.63924 | 1077 ft | 139 kts | 210° |
| 2026-04-28 05:20 | 13.96577 | 100.63453 | 912 ft | 134 kts | 210° |
| 2026-04-28 05:20 | 13.95738 | 100.62982 | 736 ft | 142 kts | 210° |
| 2026-04-28 05:20 | 13.94876 | 100.62498 | 565 ft | 138 kts | 210° |
| 2026-04-28 05:21 | 13.94037 | 100.62018 | 410 ft | 137 kts | 208° |
| 2026-04-28 05:21 | 13.93199 | 100.61555 | 210 ft | 134 kts | 207° |
| 2026-04-28 05:21 | 13.92376 | 100.61099 | 27 ft | 132 kts | 208° |
| 2026-04-28 05:21 | 13.91676 | 100.60703 | 15 ft | 91 kts | 211° |
| 2026-04-28 05:22 | 13.91318 | 100.60500 | 16 ft | 25 kts | 207° |